createdAt,value
2023-04-22T00:16:48.566Z,10.50
2023-04-22T00:52:01.159Z,9.97
2023-04-22T01:16:57.918Z,8.67
2023-04-22T01:37:43.766Z,9.07
2023-04-22T02:13:16.549Z,8.83
2023-04-22T02:48:08.099Z,9.80
2023-04-22T03:09:03.896Z,10.47
2023-04-22T03:34:14.046Z,10.00
2023-04-22T03:59:35.951Z,10.00
2023-04-22T04:19:55.726Z,9.83
2023-04-22T04:50:21.454Z,8.00
2023-04-22T05:10:26.552Z,7.60
2023-04-22T05:36:04.646Z,7.57
2023-04-22T06:11:29.691Z,7.07
2023-04-22T06:31:15.743Z,7.57
2023-04-22T07:07:13.738Z,7.00
2023-04-22T07:37:43.286Z,7.03
2023-04-22T08:02:44.113Z,4.10
2023-04-22T08:18:11.862Z,3.30
2023-04-22T09:28:54.982Z,3.43
2023-04-22T09:53:59.237Z,3.60
2023-04-22T10:14:18.792Z,3.23
2023-04-22T10:40:11.182Z,3.13
2023-04-22T11:05:20.866Z,2.70
2023-04-22T11:35:23.403Z,2.97
2023-04-22T12:06:08.876Z,3.03
2023-04-22T12:31:44.124Z,3.07
2023-04-22T13:01:34.532Z,3.40
2023-04-22T13:22:05.644Z,3.67
2023-04-22T13:42:26.166Z,3.33
2023-04-22T14:03:02.832Z,3.40
2023-04-22T14:33:11.456Z,3.80
2023-04-22T15:03:41.501Z,4.00
2023-04-22T15:33:41.717Z,4.47
2023-04-22T15:54:21.492Z,3.50
2023-04-22T16:14:27.986Z,3.40
2023-04-22T16:40:04.559Z,11.23
2023-04-22T17:35:30.575Z,5.50
2023-04-22T18:06:32.480Z,8.77
2023-04-22T18:36:47.976Z,8.63
2023-04-22T19:07:20.073Z,9.13
2023-04-22T20:08:09.768Z,11.70
2023-04-22T20:33:32.499Z,14.30
2023-04-22T21:03:59.685Z,18.37
2023-04-22T21:34:09.930Z,23.53
2023-04-22T22:04:44.771Z,29.63
2023-04-22T22:24:58.328Z,28.27
2023-04-22T22:45:25.305Z,30.43
2023-04-22T23:10:48.293Z,32.73
2023-04-22T23:36:06.368Z,33.97
